Site Report
Select Start Month: Select End Month:
Vancouver areas (Jul 18, 2009 - Jul 27, 2009)
Vancouver areas (WACCVANC) Vancouver, WA (USA) Lat,Long: 45.64068,-122.65808 Map 36 species 2 trips (0 non-trip sightings)
Areas near Vancouver WA including the Battle Ground and Lacamas Lake half marathon courses. Rural residential habitats.
Species Sightings Trips First Date Last Date Avg/Sighting Avg/Trip Max Ct
Canada Goose 1   1 07/26/2009 07/26/2009 4.0 2.0 4
Double-crested Cormorant 1   1 07/26/2009 07/26/2009 1.0 0.5 1
Great Blue Heron 1   1 07/26/2009 07/26/2009 1.0 0.5 1
Red-tailed Hawk 1   1 07/19/2009 07/19/2009 2.0 1.0 2
Band-tailed Pigeon 1   1 07/26/2009 07/26/2009 2.0 1.0 2
Mourning Dove 1   1 07/26/2009 07/26/2009 1.0 0.5 1
Vaux's Swift 1   1 07/26/2009 07/26/2009 3.0 1.5 3
Hairy Woodpecker 1   1 07/26/2009 07/26/2009 1.0 0.5 1
Western Wood-Pewee 2   2 07/19/2009 07/26/2009 1.5 1.5 2
Willow Flycatcher 2   2 07/19/2009 07/26/2009 1.0 1.0 1
Steller's Jay 1   1 07/26/2009 07/26/2009 1.0 0.5 1
Western Scrub-Jay 1   1 07/19/2009 07/19/2009 1.0 0.5 1
American Crow 2   2 07/19/2009 07/26/2009 2.0 2.0 2
Cliff Swallow 1   1 07/26/2009 07/26/2009 3.0 1.5 3
Barn Swallow 1   1 07/26/2009 07/26/2009 5.0 2.5 5
Black-capped Chickadee 2   2 07/19/2009 07/26/2009 2.0 2.0 2
Chestnut-backed Chickadee 2   2 07/19/2009 07/26/2009 1.5 1.5 2
Bushtit 1   1 07/26/2009 07/26/2009 1.0 0.5 1
Red-breasted Nuthatch 1   1 07/19/2009 07/19/2009 1.0 0.5 1
Swainson's Thrush 2   2 07/19/2009 07/26/2009 1.5 1.5 2
American Robin 2   2 07/19/2009 07/26/2009 3.5 3.5 5
European Starling 1   1 07/19/2009 07/19/2009 1.0 0.5 1
Cedar Waxwing 2   2 07/19/2009 07/26/2009 4.5 4.5 7
Common Yellowthroat 2   2 07/19/2009 07/26/2009 1.5 1.5 2
Western Tanager 1   1 07/19/2009 07/19/2009 1.0 0.5 1
Spotted Towhee 2   2 07/19/2009 07/26/2009 2.0 2.0 2
Song Sparrow 2   2 07/19/2009 07/26/2009 2.5 2.5 3
White-crowned Sparrow 1   1 07/26/2009 07/26/2009 1.0 0.5 1
Dark-eyed Junco 1   1 07/19/2009 07/19/2009 1.0 0.5 1
Black-headed Grosbeak 1   1 07/19/2009 07/19/2009 1.0 0.5 1
Brewer's Blackbird 1   1 07/19/2009 07/19/2009 1.0 0.5 1
Purple Finch 1   1 07/19/2009 07/19/2009 1.0 0.5 1
Red Crossbill 1   1 07/19/2009 07/19/2009 1.0 0.5 1
Pine Siskin 1   1 07/26/2009 07/26/2009 3.0 1.5 3
American Goldfinch 2   2 07/19/2009 07/26/2009 2.0 2.0 2
House Sparrow 1   1 07/19/2009 07/19/2009 2.0 1.0 2
Home